Time;durP1;ratioP1;P1;durP2;ratioP2;P2;SDS_P1;SDS_P2;PMS_P1;PMS_P2;Temp;Humidity;BMP_temperature;BMP_pressure;BME280_temperature;BME280_humidity;BME280_pressure;Samples;Min_cycle;Max_cycle;Signal;HPM_P1;HPM_P2
2022/01/27 05:01:43;;;;;;;30.10;13.88;;;;;;;1.06;82.68;101260.78;6533378;27;20087;-80
2022/01/27 05:04:50;;;;;;;26.57;12.63;;;;;;;1.04;83.25;101248.56;6579440;27;34506;-80
2022/01/27 05:08:18;;;;;;;25.90;13.48;;;;;;;1.13;82.22;101256.78;6580106;27;34103;-80
2022/01/27 05:11:29;;;;;;;26.37;13.00;;;;;;;1.05;82.63;101255.56;6579927;27;122242;-79
2022/01/27 05:14:32;;;;;;;25.62;13.68;;;;;;;1.08;82.04;101250.94;6599482;26;34694;-80
2022/01/27 05:17:35;;;;;;;28.05;13.57;;;;;;;1.21;81.78;101251.03;6588246;27;35369;-80
2022/01/27 05:20:37;;;;;;;23.52;13.07;;;;;;;1.15;81.71;101256.72;6579232;27;33915;-80
2022/01/27 05:23:41;;;;;;;25.83;13.43;;;;;;;1.12;81.78;101257.75;6579175;27;33910;-80
2022/01/27 05:26:43;;;;;;;24.20;12.85;;;;;;;1.19;81.12;101255.56;6579180;27;34421;-80
2022/01/27 05:29:48;;;;;;;26.65;13.75;;;;;;;1.20;80.76;101256.41;6579046;27;34465;-79
2022/01/27 05:32:50;;;;;;;25.62;13.98;;;;;;;1.21;81.11;101251.03;6578832;27;34935;-79
2022/01/27 05:35:53;;;;;;;26.98;13.93;;;;;;;1.20;81.30;101251.97;6578515;27;34766;-79
2022/01/27 05:38:56;;;;;;;27.45;14.15;;;;;;;1.24;80.73;101242.88;6578805;27;34471;-79
2022/01/27 05:41:59;;;;;;;25.85;14.35;;;;;;;1.25;80.93;101235.75;6582992;27;33943;-79
2022/01/27 05:45:02;;;;;;;27.67;14.60;;;;;;;1.23;81.07;101232.34;6582119;27;34954;-80
2022/01/27 05:48:05;;;;;;;28.15;14.60;;;;;;;1.35;80.44;101221.81;6583796;27;34607;-79
2022/01/27 05:51:08;;;;;;;26.05;14.15;;;;;;;1.19;81.19;101228.19;6584392;27;34443;-80
2022/01/27 05:54:12;;;;;;;26.30;13.80;;;;;;;1.17;81.47;101228.31;6580546;27;34100;-80
2022/01/27 05:57:14;;;;;;;27.17;15.02;;;;;;;1.20;81.31;101224.59;6578344;27;34854;-80
2022/01/27 06:00:18;;;;;;;27.50;13.93;;;;;;;1.16;81.27;101226.59;6578337;27;33920;-80
2022/01/27 06:03:21;;;;;;;29.87;14.55;;;;;;;1.25;80.58;101219.84;6578796;27;34254;-80
2022/01/27 06:06:24;;;;;;;27.77;15.30;;;;;;;1.22;80.54;101214.75;6581712;27;33847;-79
2022/01/27 06:09:27;;;;;;;27.67;14.13;;;;;;;1.26;80.37;101221.56;6578592;27;33779;-82
2022/01/27 06:12:29;;;;;;;27.55;14.43;;;;;;;1.28;80.47;101212.53;6578952;27;34718;-84
2022/01/27 06:15:32;;;;;;;29.27;14.95;;;;;;;1.31;79.86;101214.16;6579177;27;34709;-84
2022/01/27 06:18:37;;;;;;;25.95;14.27;;;;;;;1.31;79.97;101220.31;6592842;27;34687;-83
2022/01/27 06:21:43;;;;;;;24.08;13.65;;;;;;;1.30;80.22;101223.06;6585725;27;34522;-80
2022/01/27 06:24:45;;;;;;;25.40;13.45;;;;;;;1.29;80.10;101221.38;6579479;27;34838;-80
2022/01/27 06:27:48;;;;;;;36.33;14.10;;;;;;;1.38;79.68;101233.19;6579302;27;34883;-80
2022/01/27 06:30:51;;;;;;;24.95;14.00;;;;;;;1.35;80.33;101228.94;6580216;27;34659;-80
2022/01/27 06:33:54;;;;;;;28.40;14.45;;;;;;;1.35;80.38;101231.59;6583040;27;34672;-79
2022/01/27 06:36:57;;;;;;;26.65;14.27;;;;;;;1.37;80.22;101229.66;6585090;27;34067;-81
2022/01/27 06:40:01;;;;;;;26.98;14.63;;;;;;;1.37;80.25;101240.28;6581384;27;34128;-81
2022/01/27 06:43:04;;;;;;;28.50;14.82;;;;;;;1.33;80.33;101250.25;6583659;27;34150;-81
2022/01/27 06:46:07;;;;;;;28.38;15.82;;;;;;;1.39;80.27;101246.34;6580635;27;34454;-81
2022/01/27 06:49:16;;;;;;;28.55;14.65;;;;;;;1.41;80.49;101265.69;6580568;27;33541;-81
2022/01/27 06:52:20;;;;;;;29.25;14.85;;;;;;;1.44;80.35;101257.53;6579930;27;34136;-81
2022/01/27 06:55:23;;;;;;;29.50;13.52;;;;;;;1.44;80.49;101267.31;6587746;27;34687;-81
2022/01/27 06:58:26;;;;;;;26.65;14.32;;;;;;;1.48;80.52;101274.09;6583027;27;33729;-81
2022/01/27 07:01:29;;;;;;;28.65;14.00;;;;;;;1.44;80.72;101265.50;6578489;27;34020;-81
2022/01/27 07:04:32;;;;;;;27.60;14.35;;;;;;;1.50;80.55;101261.59;6578432;27;34277;-81
2022/01/27 07:07:35;;;;;;;26.98;14.77;;;;;;;1.53;80.34;101262.25;6579272;27;34485;-81
2022/01/27 07:10:38;;;;;;;26.58;14.55;;;;;;;1.60;80.14;101249.44;6579290;27;34167;-81
2022/01/27 07:13:42;;;;;;;29.45;15.00;;;;;;;1.60;80.05;101254.75;6578604;27;34011;-81
2022/01/27 07:16:45;;;;;;;27.80;14.75;;;;;;;1.59;80.26;101256.53;6579222;27;33991;-81
2022/01/27 07:19:48;;;;;;;28.38;16.10;;;;;;;1.58;80.44;101268.13;6580764;27;33704;-81
2022/01/27 07:22:51;;;;;;;31.90;15.55;;;;;;;1.51;80.75;101269.44;6582177;27;35057;-81
2022/01/27 07:25:54;;;;;;;29.92;15.52;;;;;;;1.57;80.84;101258.44;6579334;27;35412;-81
2022/01/27 07:28:57;;;;;;;33.47;15.35;;;;;;;1.56;80.16;101247.94;6580056;27;34330;-81
2022/01/27 07:32:00;;;;;;;27.70;14.38;;;;;;;1.64;79.80;101236.81;6580207;27;33573;-80
2022/01/27 07:35:04;;;;;;;30.83;15.40;;;;;;;1.62;80.11;101242.22;6584908;27;34261;-80
2022/01/27 07:38:07;;;;;;;28.00;15.20;;;;;;;1.67;80.09;101241.91;6584754;27;33789;-80
2022/01/27 07:41:13;;;;;;;28.35;14.18;;;;;;;1.68;79.90;101238.34;6585125;27;34515;-81
2022/01/27 07:44:16;;;;;;;31.35;15.68;;;;;;;1.59;80.20;101230.00;6585628;27;33725;-80
2022/01/27 07:47:22;;;;;;;31.20;15.70;;;;;;;1.63;80.23;101225.34;6582076;27;34398;-81
2022/01/27 07:50:29;;;;;;;28.65;14.50;;;;;;;1.65;80.43;101226.09;6581277;27;34089;-81
2022/01/27 07:53:32;;;;;;;31.77;15.73;;;;;;;1.72;80.19;101226.56;6599740;26;33927;-80
2022/01/27 07:56:55;;;;;;;27.55;13.98;;;;;;;1.73;80.08;101236.25;6594350;26;35440;-81
2022/01/27 07:59:58;;;;;;;26.05;14.68;;;;;;;1.73;79.90;101233.59;6579710;27;33971;-81
2022/01/27 08:03:01;;;;;;;28.70;15.88;;;;;;;1.75;80.18;101232.50;6579675;27;34147;-81
2022/01/27 08:06:06;;;;;;;28.58;15.52;;;;;;;1.79;79.65;101230.53;6579095;27;35150;-85
2022/01/27 08:09:09;;;;;;;33.85;14.15;;;;;;;1.79;79.73;101227.88;6579351;27;33621;-85
2022/01/27 08:12:11;;;;;;;27.08;14.25;;;;;;;1.77;79.39;101222.66;6579222;27;34603;-85
2022/01/27 08:15:18;;;;;;;27.87;14.75;;;;;;;1.86;79.24;101223.84;6579097;27;34072;-82
2022/01/27 08:18:21;;;;;;;24.30;13.55;;;;;;;1.95;78.69;101217.09;6579637;27;33922;-81
2022/01/27 08:21:24;;;;;;;26.08;14.98;;;;;;;2.04;78.28;101221.78;6579223;27;34839;-81
2022/01/27 08:24:27;;;;;;;28.12;15.15;;;;;;;2.00;78.44;101220.28;6579295;27;34112;-81
2022/01/27 08:27:32;;;;;;;26.62;14.48;;;;;;;2.16;77.84;101212.97;6578753;27;33954;-81
2022/01/27 08:30:41;;;;;;;28.20;14.65;;;;;;;2.13;77.88;101213.19;6579565;27;33970;-81
2022/01/27 08:33:44;;;;;;;28.30;14.73;;;;;;;2.21;77.68;101221.50;6579286;27;34739;-81
2022/01/27 08:36:47;;;;;;;26.50;13.62;;;;;;;2.16;77.69;101220.09;6578139;27;33668;-81
2022/01/27 08:39:55;;;;;;;28.48;14.40;;;;;;;2.20;77.70;101226.94;6579416;27;33896;-81
2022/01/27 08:43:00;;;;;;;27.10;14.27;;;;;;;2.19;77.54;101226.06;6579583;27;33864;-81
2022/01/27 08:46:03;;;;;;;26.67;15.13;;;;;;;2.45;76.46;101229.59;6582539;27;34554;-81
2022/01/27 08:49:06;;;;;;;28.70;14.45;;;;;;;2.46;76.11;101215.38;6583325;27;34504;-81
2022/01/27 08:52:09;;;;;;;29.37;15.07;;;;;;;2.61;75.51;101213.47;6580007;27;34923;-81
2022/01/27 08:55:13;;;;;;;26.70;14.82;;;;;;;2.86;74.53;101207.28;6591191;27;35128;-82
2022/01/27 08:58:16;;;;;;;25.95;13.25;;;;;;;3.06;73.76;101195.25;6587399;27;34842;-82
2022/01/27 09:01:20;;;;;;;29.05;15.00;;;;;;;3.25;72.83;101193.94;6578825;27;34319;-82
2022/01/27 09:04:24;;;;;;;25.73;13.90;;;;;;;3.62;71.01;101184.09;6579102;27;34068;-81
2022/01/27 09:07:27;;;;;;;27.62;13.68;;;;;;;3.89;69.80;101189.22;6579206;27;34108;-82
2022/01/27 09:10:31;;;;;;;30.52;14.05;;;;;;;3.98;68.80;101195.66;6578862;27;34419;-81
2022/01/27 09:13:35;;;;;;;26.40;14.07;;;;;;;3.63;70.35;101213.28;6579656;27;33840;-81
2022/01/27 09:16:39;;;;;;;26.80;14.10;;;;;;;3.48;70.14;101205.56;6583709;27;33970;-79
2022/01/27 09:19:48;;;;;;;27.50;14.23;;;;;;;3.46;70.23;101204.84;6587536;27;34118;-79
2022/01/27 09:22:54;;;;;;;23.20;13.02;;;;;;;3.37;70.32;101195.72;6579642;27;34052;-81
2022/01/27 09:26:03;;;;;;;27.42;14.23;;;;;;;3.43;70.73;101203.25;6582947;27;33890;-80
2022/01/27 09:29:06;;;;;;;27.37;13.98;;;;;;;3.47;69.98;101204.72;6582723;27;33751;-80
2022/01/27 09:32:09;;;;;;;27.50;14.18;;;;;;;3.52;70.62;101215.88;6585298;27;34406;-79
2022/01/27 09:35:13;;;;;;;28.42;15.15;;;;;;;3.42;70.13;101225.50;6583715;27;34365;-81
2022/01/27 09:38:16;;;;;;;29.90;14.80;;;;;;;3.44;69.95;101212.94;6580902;27;34206;-82
2022/01/27 09:41:20;;;;;;;28.05;14.75;;;;;;;3.44;69.96;101212.09;6585047;27;33723;-81
2022/01/27 09:44:28;;;;;;;25.83;13.05;;;;;;;3.36;70.83;101208.19;6579466;27;33828;-82
2022/01/27 09:47:34;;;;;;;26.37;14.10;;;;;;;3.32;70.29;101212.00;6579092;27;35416;-80
2022/01/27 09:51:21;;;;;;;28.48;14.48;;;;;;;3.53;70.17;101208.75;6579591;27;34392;-81
2022/01/27 09:54:14;;;;;;;28.42;14.02;;;;;;;3.39;70.21;101213.28;6578603;27;34041;-81
2022/01/27 09:57:18;;;;;;;27.60;13.00;;;;;;;3.54;70.30;101202.44;6578856;27;33980;-81
2022/01/27 10:00:22;;;;;;;27.35;13.05;;;;;;;3.59;69.37;101210.97;6579373;27;34003;-80
2022/01/27 10:03:28;;;;;;;21.73;11.90;;;;;;;3.66;68.66;101214.88;6580503;27;34476;-81
2022/01/27 10:06:33;;;;;;;25.65;13.20;;;;;;;3.78;68.60;101213.97;6581958;27;34036;-80
2022/01/27 10:09:37;;;;;;;24.35;12.57;;;;;;;3.60;69.46;101207.34;6585957;27;34205;-79
2022/01/27 10:12:48;;;;;;;24.95;12.50;;;;;;;3.92;68.38;101207.63;6582970;27;35015;-79
2022/01/27 10:15:53;;;;;;;25.15;12.32;;;;;;;4.18;66.90;101192.31;6580417;27;34433;-79
2022/01/27 10:19:07;;;;;;;26.23;12.85;;;;;;;4.27;66.36;101188.09;6581478;27;34762;-79
2022/01/27 10:22:13;;;;;;;21.42;11.23;;;;;;;4.11;67.18;101171.59;6581802;27;34891;-80
2022/01/27 10:25:21;;;;;;;24.95;12.65;;;;;;;3.80;66.68;101164.12;6579097;27;34648;-80
2022/01/27 10:31:59;;;;;;;25.90;12.68;;;;;;;3.51;68.65;101144.09;6580285;27;33934;-81
2022/01/27 10:35:04;;;;;;;22.85;12.15;;;;;;;3.74;67.83;101140.59;6580142;27;34090;-80
2022/01/27 10:38:09;;;;;;;28.60;12.80;;;;;;;4.25;66.53;101144.75;6584401;27;33707;-80
2022/01/27 10:41:12;;;;;;;23.83;12.45;;;;;;;4.70;64.85;101134.12;6563643;27;34184;-80
2022/01/27 10:44:17;;;;;;;24.40;11.95;;;;;;;4.73;63.92;101139.22;6598208;27;34840;-80
2022/01/27 10:47:32;;;;;;;20.90;11.80;;;;;;;4.65;63.50;101138.97;6589940;27;35187;-83
2022/01/27 10:50:51;;;;;;;23.30;12.57;;;;;;;4.99;62.73;101113.97;6579680;27;34440;-80
2022/01/27 10:54:18;;;;;;;21.73;12.07;;;;;;;5.31;62.19;101118.50;6581588;27;34067;-80
2022/01/27 10:57:24;;;;;;;22.20;12.52;;;;;;;5.45;60.34;101106.72;6581044;27;34454;-80
2022/01/27 11:00:31;;;;;;;22.83;11.52;;;;;;;5.35;60.11;101108.44;6581438;27;35094;-80
2022/01/27 11:03:35;;;;;;;25.90;12.65;;;;;;;5.43;60.74;101114.00;6581842;27;34170;-81
2022/01/27 11:06:55;;;;;;;23.45;12.20;;;;;;;5.45;60.26;101107.56;6584016;27;33991;-81
2022/01/27 11:09:58;;;;;;;26.12;12.80;;;;;;;5.27;60.71;101105.56;6585945;27;34798;-81
2022/01/27 11:13:01;;;;;;;23.27;12.80;;;;;;;5.41;60.55;101098.09;6581541;27;34181;-81
2022/01/27 11:16:11;;;;;;;26.05;12.70;;;;;;;5.57;60.05;101092.34;6581383;27;34273;-81
2022/01/27 11:26:08;;;;;;;24.67;13.45;;;;;;;5.02;61.46;101083.53;6505108;27;33964;-80
2022/01/27 11:29:14;;;;;;;28.20;14.65;;;;;;;5.29;61.78;101076.91;6583321;27;33945;-80
2022/01/27 11:32:28;;;;;;;27.95;13.88;;;;;;;5.27;60.56;101069.03;6588743;27;34992;-83
2022/01/27 11:35:31;;;;;;;25.67;14.32;;;;;;;5.54;60.15;101065.88;6584195;27;33896;-80
2022/01/27 11:38:34;;;;;;;28.08;13.70;;;;;;;5.42;60.14;101057.06;6583834;27;33621;-80
2022/01/27 11:41:42;;;;;;;25.73;14.23;;;;;;;5.65;60.21;101060.50;6581569;27;33964;-81
2022/01/27 11:44:46;;;;;;;25.33;13.75;;;;;;;6.14;57.63;101047.44;6586852;27;34056;-80
2022/01/27 11:48:13;;;;;;;29.58;14.60;;;;;;;6.11;57.41;101048.59;6581933;27;33760;-81
2022/01/27 11:51:16;;;;;;;28.08;13.90;;;;;;;6.56;56.42;101032.16;6579432;27;33976;-81
2022/01/27 11:54:26;;;;;;;24.55;13.15;;;;;;;6.86;54.81;101034.91;6590532;27;34069;-81
2022/01/27 11:57:45;;;;;;;26.50;14.50;;;;;;;6.96;54.43;101039.31;6590449;27;34433;-81
2022/01/27 12:01:10;;;;;;;29.07;13.40;;;;;;;7.52;52.98;101032.44;6590191;27;34071;-80
2022/01/27 12:04:16;;;;;;;23.62;13.18;;;;;;;7.75;51.64;101030.31;6577777;27;34203;-81
2022/01/27 12:07:18;;;;;;;24.67;12.98;;;;;;;8.22;50.91;101026.78;6585368;27;34627;-81
2022/01/27 12:10:49;;;;;;;22.30;11.75;;;;;;;8.93;48.42;101023.53;6583704;27;34154;-81
2022/01/27 12:14:00;;;;;;;19.65;10.07;;;;;;;9.56;46.57;101028.81;6590344;27;33736;-81
2022/01/27 12:17:09;;;;;;;30.33;14.00;;;;;;;10.15;45.74;101019.16;6594106;27;34555;-81
2022/01/27 12:20:13;;;;;;;22.83;10.43;;;;;;;11.06;43.20;101018.53;6583672;27;34907;-85
2022/01/27 12:23:19;;;;;;;23.23;11.02;;;;;;;10.12;44.16;101007.84;6577357;27;34128;-85
2022/01/27 12:26:56;;;;;;;21.02;10.07;;;;;;;9.76;45.25;101011.50;6575878;27;33842;-81
2022/01/27 12:30:00;;;;;;;22.35;12.00;;;;;;;11.37;41.91;100995.50;6576605;27;34421;-81
2022/01/27 12:33:03;;;;;;;24.63;11.30;;;;;;;11.98;40.18;100989.56;6576607;27;34007;-81
2022/01/27 12:36:06;;;;;;;18.73;9.73;;;;;;;12.09;39.68;100982.97;6578478;27;34090;-80
2022/01/27 12:39:09;;;;;;;19.48;10.25;;;;;;;13.02;37.84;100968.69;6578218;27;33562;-80
2022/01/27 12:42:15;;;;;;;23.40;11.52;;;;;;;12.64;38.89;100965.03;6581978;27;34537;-80
2022/01/27 12:45:19;;;;;;;22.15;10.75;;;;;;;13.37;37.34;100959.16;6577436;27;35141;-80
2022/01/27 12:48:26;;;;;;;22.52;11.50;;;;;;;13.56;36.39;100954.25;6578488;27;34482;-80
2022/01/27 12:51:46;;;;;;;20.75;11.10;;;;;;;12.45;38.09;100952.81;6578563;27;33890;-80
2022/01/27 12:54:53;;;;;;;21.12;11.75;;;;;;;11.51;40.40;100944.44;6578545;27;34305;-80
2022/01/27 12:58:18;;;;;;;24.05;13.38;;;;;;;12.38;39.12;100939.16;6578465;27;34548;-80
2022/01/27 13:01:21;;;;;;;25.92;13.93;;;;;;;12.17;39.01;100931.66;6578260;27;34758;-79
2022/01/27 13:04:25;;;;;;;25.77;14.25;;;;;;;12.75;38.40;100918.69;6578458;27;34376;-79
2022/01/27 13:07:29;;;;;;;26.87;14.38;;;;;;;12.62;38.39;100913.06;6578643;27;35592;-81
2022/01/27 13:10:32;;;;;;;24.48;13.90;;;;;;;12.69;38.18;100903.19;6578005;27;34964;-80
2022/01/27 13:13:38;;;;;;;27.65;16.15;;;;;;;11.97;38.96;100906.94;6579167;27;33595;-80
2022/01/27 13:16:44;;;;;;;25.58;14.93;;;;;;;11.50;40.16;100891.53;6578323;27;33810;-80
2022/01/27 13:19:56;;;;;;;26.08;16.83;;;;;;;10.10;42.71;100894.19;6577153;27;33653;-79
2022/01/27 13:26:16;;;;;;;28.02;15.55;;;;;;;8.07;48.71;100906.59;6578593;27;34503;-81
2022/01/27 13:29:20;;;;;;;26.55;14.38;;;;;;;7.68;49.97;100911.25;6578381;27;34240;-81
2022/01/27 13:32:38;;;;;;;32.03;15.77;;;;;;;7.43;50.74;100897.53;6580161;27;34400;-81
2022/01/27 13:35:41;;;;;;;26.55;15.65;;;;;;;7.11;52.00;100894.31;6579838;27;35316;-81
2022/01/27 13:39:02;;;;;;;29.30;16.30;;;;;;;6.81;53.07;100893.47;6580647;27;34087;-81
2022/01/27 13:42:08;;;;;;;;;;;;;;;6.73;53.29;100886.19;6579786;27;34155;-79
2022/01/27 13:45:11;;;;;;;33.50;16.45;;;;;;;6.63;53.63;100876.44;6578613;27;34339;-79
2022/01/27 13:48:21;;;;;;;30.00;14.87;;;;;;;6.47;54.30;100883.19;6578320;27;33794;-80
2022/01/27 13:51:25;;;;;;;29.70;16.48;;;;;;;6.26;55.30;100869.94;6577891;27;33629;-80
2022/01/27 13:54:30;;;;;;;28.52;15.32;;;;;;;6.15;55.84;100858.50;6579348;27;33860;-80
2022/01/27 13:57:35;;;;;;;28.00;15.65;;;;;;;6.00;56.35;100858.06;6577806;27;34812;-79
2022/01/27 14:00:41;;;;;;;31.42;15.82;;;;;;;5.94;56.31;100854.09;6577708;27;34047;-79
2022/01/27 14:03:46;;;;;;;32.33;14.75;;;;;;;5.88;57.20;100855.47;6576843;27;35758;-79
2022/01/27 14:06:56;;;;;;;32.42;17.33;;;;;;;5.77;57.83;100852.03;6578962;27;33669;-79
2022/01/27 14:10:28;;;;;;;30.73;16.52;;;;;;;5.70;59.02;100843.69;6582682;27;34051;-79
2022/01/27 14:13:31;;;;;;;26.70;14.90;;;;;;;5.67;59.36;100841.28;6581074;27;35510;-80
2022/01/27 14:16:34;;;;;;;30.85;16.20;;;;;;;5.63;59.47;100834.53;6583866;27;34037;-79
2022/01/27 14:19:38;;;;;;;34.95;16.83;;;;;;;5.53;59.42;100839.00;6585385;27;33655;-79
2022/01/27 14:22:50;;;;;;;33.20;16.05;;;;;;;5.50;60.07;100831.25;6581429;27;34224;-84
2022/01/27 14:26:01;;;;;;;31.92;17.45;;;;;;;5.39;60.95;100840.22;6578298;27;34395;-81
2022/01/27 14:29:08;;;;;;;31.30;16.10;;;;;;;5.42;60.83;100835.44;6579238;27;34778;-81
2022/01/27 14:32:11;;;;;;;30.10;16.40;;;;;;;5.46;60.99;100825.34;6580041;27;33951;-81
2022/01/27 14:35:15;;;;;;;35.05;17.20;;;;;;;5.40;62.30;100821.38;6580705;27;34329;-81
2022/01/27 14:38:17;;;;;;;30.67;15.88;;;;;;;5.26;63.14;100812.87;6580609;27;34374;-81
2022/01/27 14:41:21;;;;;;;33.17;16.08;;;;;;;5.18;64.01;100821.56;6585041;27;33911;-80
2022/01/27 14:44:24;;;;;;;33.03;16.95;;;;;;;5.12;64.10;100804.25;6581764;27;34598;-80
2022/01/27 14:47:28;;;;;;;34.95;18.10;;;;;;;5.06;64.60;100801.22;6595423;27;35368;-80
2022/01/27 14:50:35;;;;;;;34.33;17.48;;;;;;;5.04;64.76;100804.06;6588611;27;34535;-80
2022/01/27 14:53:39;;;;;;;34.80;17.67;;;;;;;5.07;64.80;100802.94;6598242;27;34887;-79
2022/01/27 14:56:42;;;;;;;35.55;18.65;;;;;;;4.98;64.91;100807.25;6585550;27;35435;-80
2022/01/27 14:59:45;;;;;;;40.30;17.52;;;;;;;4.86;65.37;100810.97;6578340;27;33785;-80
2022/01/27 15:02:53;;;;;;;34.67;17.23;;;;;;;4.79;65.96;100813.28;6579073;27;33855;-80
2022/01/27 15:05:57;;;;;;;34.67;17.67;;;;;;;4.78;66.14;100801.78;6578933;27;35384;-80
2022/01/27 15:08:59;;;;;;;34.35;17.25;;;;;;;4.63;67.00;100797.75;6579370;27;34044;-80
2022/01/27 15:12:02;;;;;;;38.58;18.52;;;;;;;4.64;67.11;100791.44;6578673;27;34319;-80
2022/01/27 15:21:50;;;;;;;43.05;20.55;;;;;;;4.48;69.09;100778.56;6591049;27;36164;-80
2022/01/27 15:24:54;;;;;;;41.70;20.42;;;;;;;4.41;70.14;100776.50;6580906;27;34042;-80
2022/01/27 15:27:56;;;;;;;39.35;20.05;;;;;;;4.29;70.57;100775.72;6579864;27;34662;-80
2022/01/27 15:31:00;;;;;;;37.42;19.35;;;;;;;4.22;70.81;100778.06;6581740;27;34879;-80
2022/01/27 15:34:03;;;;;;;44.03;21.62;;;;;;;4.23;71.01;100778.91;6578490;27;34038;-80
2022/01/27 15:37:07;;;;;;;38.75;20.60;;;;;;;4.16;71.50;100767.91;6587772;27;33895;-80
2022/01/27 15:40:13;;;;;;;41.28;20.92;;;;;;;4.10;71.57;100773.75;6588454;27;34966;-80
2022/01/27 15:43:36;;;;;;;42.70;20.65;;;;;;;4.07;71.18;100772.19;6583894;27;34081;-81
2022/01/27 15:46:39;;;;;;;35.75;17.98;;;;;;;4.06;71.45;100759.81;6580916;27;34005;-81
2022/01/27 15:49:43;;;;;;;39.78;19.62;;;;;;;3.98;70.97;100758.75;6579622;27;33791;-81
2022/01/27 15:52:46;;;;;;;35.78;20.05;;;;;;;3.85;71.47;100761.56;6579800;27;33577;-81
2022/01/27 15:55:50;;;;;;;36.15;18.48;;;;;;;3.86;71.44;100766.78;6580030;27;34440;-81
2022/01/27 15:58:52;;;;;;;34.78;17.73;;;;;;;3.86;71.47;100765.91;6580412;27;33628;-81
2022/01/27 16:01:55;;;;;;;30.37;17.17;;;;;;;3.74;71.64;100751.78;6582164;27;35034;-80
2022/01/27 16:04:58;;;;;;;34.17;18.45;;;;;;;3.76;71.57;100743.69;6580494;27;33970;-81
2022/01/27 16:08:01;;;;;;;36.33;18.08;;;;;;;3.72;71.78;100748.44;6585031;27;33696;-81
2022/01/27 16:11:04;;;;;;;31.35;16.20;;;;;;;3.70;71.10;100739.72;6584021;27;34664;-81
2022/01/27 16:14:07;;;;;;;30.02;17.27;;;;;;;3.66;71.60;100742.72;6584453;27;34980;-81
2022/01/27 16:17:10;;;;;;;31.60;16.37;;;;;;;3.63;71.09;100735.87;6584199;27;33875;-81
2022/01/27 16:20:14;;;;;;;28.33;15.45;;;;;;;3.63;70.87;100738.53;6583292;27;34399;-81
2022/01/27 16:23:17;;;;;;;27.75;15.27;;;;;;;3.58;71.76;100735.37;6580436;27;33965;-81
2022/01/27 16:26:20;;;;;;;26.55;14.32;;;;;;;3.56;71.17;100739.97;6579923;27;33636;-80
2022/01/27 16:29:25;;;;;;;26.27;14.48;;;;;;;3.48;71.27;100732.63;6581348;27;34764;-81
2022/01/27 16:32:28;;;;;;;28.27;14.57;;;;;;;3.48;71.31;100735.28;6585598;27;34285;-80
2022/01/27 16:35:31;;;;;;;30.12;14.77;;;;;;;3.47;71.29;100727.41;6580549;27;34414;-80
2022/01/27 16:38:35;;;;;;;30.25;15.85;;;;;;;3.45;71.64;100737.31;6580335;27;34095;-80
2022/01/27 16:41:38;;;;;;;27.30;14.35;;;;;;;3.47;71.61;100722.09;6580464;27;34760;-81
2022/01/27 16:44:41;;;;;;;29.10;15.70;;;;;;;3.40;71.55;100722.59;6580395;27;34668;-81
2022/01/27 16:47:44;;;;;;;25.27;13.82;;;;;;;3.43;71.29;100720.66;6580599;27;34056;-81
2022/01/27 16:50:47;;;;;;;29.73;16.20;;;;;;;3.36;71.70;100720.28;6580414;27;34304;-81
